Time;durP1;ratioP1;P1;durP2;ratioP2;P2;SDS_P1;SDS_P2;PMS_P1;PMS_P2;Temp;Humidity;BMP_temperature;BMP_pressure;BME280_temperature;BME280_humidity;BME280_pressure;Samples;Min_cycle;Max_cycle;Signal;HPM_P1;HPM_P2
2022/02/07 00:02:22;;;;;;;0.10;0.10;;;2.30;99.90;;;;;;5076580;28;20036;-73
2022/02/07 00:04:49;;;;;;;0.20;0.20;;;2.30;99.90;;;;;;5076608;28;20036;-73
2022/02/07 00:07:21;;;;;;;0.10;0.10;;;2.30;99.90;;;;;;5095048;28;20054;-73
2022/02/07 00:09:48;;;;;;;0.20;0.20;;;2.10;99.90;;;;;;5076741;28;20044;-73
2022/02/07 00:12:20;;;;;;;0.10;0.10;;;2.00;99.90;;;;;;5060785;28;20048;-73
2022/02/07 00:14:46;;;;;;;0.10;0.10;;;1.90;99.90;;;;;;5094459;28;20058;-73
2022/02/07 00:17:18;;;;;;;0.17;0.17;;;1.70;99.90;;;;;;5093568;28;20067;-74
2022/02/07 00:19:50;;;;;;;0.20;0.20;;;1.70;99.90;;;;;;5094917;28;20046;-75
2022/02/07 00:22:21;;;;;;;0.13;0.13;;;1.50;99.90;;;;;;5094408;28;20048;-76
2022/02/07 00:24:48;;;;;;;0.45;0.20;;;1.50;99.90;;;;;;5076362;28;20046;-76
2022/02/07 00:27:20;;;;;;;0.20;0.20;;;1.40;99.90;;;;;;5076428;28;20054;-75
2022/02/07 00:29:52;;;;;;;0.20;0.20;;;1.40;99.90;;;;;;5060367;28;20046;-76
2022/02/07 00:32:18;;;;;;;0.20;0.20;;;1.30;99.90;;;;;;5076166;28;20482;-76
2022/02/07 00:34:50;;;;;;;0.10;0.10;;;1.20;99.90;;;;;;5077232;28;20044;-76
2022/02/07 00:37:17;;;;;;;0.20;0.17;;;1.20;99.90;;;;;;5076253;28;20048;-75
2022/02/07 00:39:59;;;;;;;0.20;0.20;;;1.20;99.90;;;;;;5076224;28;20036;-75
2022/02/07 00:42:36;;;;;;;0.17;0.17;;;1.10;99.90;;;;;;5093911;28;20036;-75
2022/02/07 00:45:14;;;;;;;0.20;0.20;;;1.10;99.90;;;;;;5075969;28;20068;-75
2022/02/07 00:47:45;;;;;;;0.30;0.20;;;1.10;99.90;;;;;;5076117;28;20066;-76
2022/02/07 00:50:12;;;;;;;0.20;0.20;;;1.10;99.90;;;;;;5094097;28;20583;-76
2022/02/07 00:52:44;;;;;;;0.25;0.22;;;1.00;99.90;;;;;;5059745;28;20414;-76
2022/02/07 00:55:11;;;;;;;0.20;0.20;;;1.00;99.90;;;;;;5092872;28;20055;-76
2022/02/07 00:57:38;;;;;;;0.20;0.20;;;0.90;99.90;;;;;;5075887;28;20044;-77
2022/02/07 01:00:05;;;;;;;0.20;0.17;;;0.90;99.90;;;;;;5075932;28;20040;-77
2022/02/07 01:02:35;;;;;;;0.10;0.10;;;0.90;99.90;;;;;;5058240;28;20410;-77
2022/02/07 01:05:02;;;;;;;0.20;0.20;;;0.90;99.90;;;;;;5075701;28;20079;-76
2022/02/07 01:07:34;;;;;;;0.20;0.20;;;0.90;99.90;;;;;;5060068;28;20473;-77
2022/02/07 01:10:04;;;;;;;0.20;0.20;;;0.90;99.90;;;;;;5075600;28;20143;-77
2022/02/07 01:21:34;;;;;;;0.20;0.20;;;0.90;99.90;;;;;;5092320;28;20040;-77
2022/02/07 01:46:00;;;;;;;0.20;0.20;;;0.90;99.90;;;;;;5074924;28;20097;-77
2022/02/07 01:56:53;;;;;;;0.25;0.25;;;1.10;99.90;;;;;;5074720;28;20506;-77
2022/02/07 01:59:21;;;;;;;0.22;0.22;;;1.00;99.90;;;;;;5074507;28;20048;-78
2022/02/07 02:01:48;;;;;;;0.38;0.30;;;1.00;99.90;;;;;;5074451;28;20040;-78
2022/02/07 02:04:20;;;;;;;1.40;0.40;;;1.00;99.90;;;;;;5073908;28;20036;-78
2022/02/07 02:06:48;;;;;;;0.10;0.10;;;0.90;99.90;;;;;;5074360;28;20067;-78
2022/02/07 02:09:29;;;;;;;0.75;0.10;;;0.80;99.90;;;;;;5058857;28;20040;-78
2022/02/07 02:11:59;;;;;;;0.25;0.20;;;0.90;99.90;;;;;;5074605;28;20040;-78
2022/02/07 02:20:51;;;;;;;0.20;0.20;;;1.00;99.90;;;;;;5073803;28;20044;-78
2022/02/07 02:37:27;;;;;;;0.40;0.20;;;1.20;99.90;;;;;;5090580;28;20047;-78
2022/02/07 02:45:38;;;;;;;1.10;0.20;;;1.30;99.90;;;;;;5090754;28;20036;-78
2022/02/07 02:48:23;;;;;;;0.20;0.20;;;1.30;99.90;;;;;;5059192;28;20048;-78
2022/02/07 02:51:04;;;;;;;0.20;0.20;;;1.30;99.90;;;;;;5058438;28;20384;-78
2022/02/07 02:53:38;;;;;;;1.95;0.30;;;1.20;99.90;;;;;;5058084;28;20048;-78
2022/02/07 02:56:05;;;;;;;0.20;0.20;;;1.30;99.90;;;;;;5074152;28;20475;-77
2022/02/07 02:59:03;;;;;;;0.95;0.30;;;1.30;99.90;;;;;;5069171;28;20109;-78
2022/02/07 03:01:38;;;;;;;0.88;0.28;;;1.30;99.90;;;;;;5073968;28;20060;-78
2022/02/07 03:04:14;;;;;;;1.45;0.30;;;1.30;99.90;;;;;;5058326;28;20498;-78
2022/02/07 03:06:48;;;;;;;0.30;0.30;;;1.30;99.90;;;;;;5058080;28;20135;-78
2022/02/07 03:09:16;;;;;;;0.20;0.20;;;1.20;99.90;;;;;;5057324;28;20068;-77
2022/02/07 03:11:49;;;;;;;0.20;0.20;;;1.30;99.90;;;;;;5057874;28;20048;-78
2022/02/07 03:14:34;;;;;;;1.67;0.40;;;1.30;99.90;;;;;;5057632;28;20134;-78
2022/02/07 03:17:04;;;;;;;0.70;0.40;;;1.30;99.90;;;;;;5057651;28;20079;-78
2022/02/07 03:19:31;;;;;;;0.43;0.30;;;1.30;99.90;;;;;;5073895;28;20443;-78
2022/02/07 03:22:03;;;;;;;0.70;0.40;;;1.30;99.90;;;;;;5057681;28;20044;-78
2022/02/07 03:24:36;;;;;;;0.88;0.30;;;1.30;99.90;;;;;;5057565;28;20123;-78
2022/02/07 03:27:04;;;;;;;0.47;0.43;;;1.30;99.90;;;;;;5076430;28;20079;-77
2022/02/07 03:29:34;;;;;;;0.90;0.38;;;1.20;99.90;;;;;;5077627;28;20127;-78
2022/02/07 03:32:09;;;;;;;2.50;0.63;;;1.30;99.90;;;;;;5062197;28;20044;-77
2022/02/07 03:34:49;;;;;;;1.25;0.85;;;1.30;99.90;;;;;;5062641;28;20455;-77
2022/02/07 03:37:20;;;;;;;1.42;0.50;;;1.40;99.90;;;;;;5077387;28;20051;-78
2022/02/07 03:39:52;;;;;;;0.60;0.40;;;1.40;99.90;;;;;;5061862;28;20048;-77
2022/02/07 03:42:20;;;;;;;0.30;0.30;;;1.30;99.90;;;;;;5060708;28;20051;-77
2022/02/07 03:45:00;;;;;;;2.67;1.08;;;1.30;99.90;;;;;;5062826;28;20036;-77
2022/02/07 03:47:30;;;;;;;4.85;0.93;;;1.20;99.90;;;;;;5077242;28;20040;-77
2022/02/07 03:49:58;;;;;;;1.35;0.65;;;1.20;99.90;;;;;;5077580;28;20056;-78
2022/02/07 03:52:29;;;;;;;0.63;0.43;;;1.20;99.90;;;;;;5076838;28;20040;-77
2022/02/07 03:54:55;;;;;;;1.92;0.40;;;1.20;99.90;;;;;;5077084;28;20068;-77
2022/02/07 03:57:22;;;;;;;0.68;0.50;;;1.20;99.90;;;;;;5077167;28;20048;-77
2022/02/07 03:59:49;;;;;;;1.33;0.40;;;1.20;99.90;;;;;;5060623;28;20419;-77
2022/02/07 04:02:21;;;;;;;1.00;0.50;;;1.20;99.90;;;;;;5077083;28;20415;-78
2022/02/07 04:04:56;;;;;;;1.83;0.50;;;1.30;99.90;;;;;;5060585;28;20143;-77
2022/02/07 04:07:23;;;;;;;0.70;0.40;;;1.20;99.90;;;;;;5060775;28;20047;-77
2022/02/07 04:09:54;;;;;;;1.10;0.50;;;1.30;99.90;;;;;;5060391;28;20087;-77
2022/02/07 04:12:25;;;;;;;1.95;0.70;;;1.20;99.90;;;;;;5060411;28;20044;-77
2022/02/07 04:15:01;;;;;;;0.73;0.35;;;1.30;99.90;;;;;;5060906;28;20051;-77
2022/02/07 04:17:30;;;;;;;1.65;0.50;;;1.30;99.90;;;;;;5076006;28;20036;-76
2022/02/07 04:20:07;;;;;;;0.88;0.50;;;1.30;99.90;;;;;;5068600;28;20044;-77
2022/02/07 04:22:45;;;;;;;1.15;0.50;;;1.30;99.90;;;;;;5087260;28;20199;-77
2022/02/07 04:25:30;;;;;;;0.77;0.50;;;1.30;99.90;;;;;;5079349;28;20170;-77
2022/02/07 04:28:04;;;;;;;1.17;0.55;;;1.40;99.90;;;;;;5092993;28;20101;-77
2022/02/07 04:30:31;;;;;;;2.20;0.70;;;1.30;99.90;;;;;;5092601;28;20127;-77
2022/02/07 04:33:00;;;;;;;1.45;0.60;;;1.40;99.90;;;;;;5079037;28;20040;-77
2022/02/07 04:35:27;;;;;;;1.45;0.90;;;1.40;99.90;;;;;;5051671;28;20067;-77
2022/02/07 04:37:59;;;;;;;2.47;0.80;;;1.30;99.90;;;;;;5092127;28;20036;-77
2022/02/07 04:40:26;;;;;;;3.03;1.27;;;1.30;99.90;;;;;;5079661;28;20044;-77
2022/02/07 04:42:53;;;;;;;1.67;0.50;;;1.30;99.90;;;;;;5055527;28;20068;-77
2022/02/07 04:54:19;;;;;;;1.85;0.80;;;1.10;99.90;;;;;;5072156;28;20041;-77
2022/02/07 05:03:57;;;;;;;1.40;0.60;;;1.00;99.90;;;;;;5055088;28;20127;-77
2022/02/07 05:14:52;;;;;;;1.58;0.70;;;1.10;99.90;;;;;;5074359;28;20040;-76
2022/02/07 05:17:21;;;;;;;1.08;0.57;;;1.10;99.90;;;;;;5059599;28;20078;-77
2022/02/07 05:20:01;;;;;;;2.40;1.20;;;1.10;99.90;;;;;;5080449;28;20130;-77
2022/02/07 05:23:04;;;;;;;2.25;0.73;;;1.10;99.90;;;;;;5087789;28;20426;-77
2022/02/07 05:25:57;;;;;;;1.03;0.70;;;1.10;99.90;;;;;;5098723;28;20418;-77
2022/02/07 05:29:07;;;;;;;3.22;1.40;;;1.00;99.90;;;;;;5083789;28;20131;-77
2022/02/07 05:31:46;;;;;;;18.27;8.38;;;1.00;99.90;;;;;;5079117;28;20043;-77
2022/02/07 05:34:33;;;;;;;4.72;2.95;;;1.00;99.90;;;;;;5079301;28;20071;-77
2022/02/07 05:37:17;;;;;;;23.92;10.68;;;1.00;99.90;;;;;;5075005;28;20093;-77
2022/02/07 05:40:12;;;;;;;31.65;14.43;;;1.00;99.90;;;;;;5074558;28;20127;-77
2022/02/07 05:43:03;;;;;;;1.42;0.90;;;0.90;99.90;;;;;;5078087;28;20133;-76
2022/02/07 05:45:57;;;;;;;2.05;1.10;;;0.90;99.90;;;;;;5074562;28;20044;-76
2022/02/07 05:48:43;;;;;;;3.03;1.30;;;0.90;99.90;;;;;;5090676;28;20127;-76
2022/02/07 05:51:37;;;;;;;1.13;0.68;;;0.90;99.90;;;;;;5074908;28;20101;-76
2022/02/07 05:54:23;;;;;;;2.03;0.68;;;0.90;99.90;;;;;;5075858;28;20109;-76
2022/02/07 05:56:59;;;;;;;5.05;1.00;;;1.00;99.90;;;;;;5072708;28;20055;-76
2022/02/07 05:59:38;;;;;;;2.85;1.08;;;1.00;99.90;;;;;;5089975;28;20544;-75
2022/02/07 06:02:29;;;;;;;1.10;0.43;;;1.00;99.90;;;;;;5073243;28;20067;-77
2022/02/07 06:05:08;;;;;;;1.83;0.65;;;1.00;99.90;;;;;;5058922;28;20097;-75
2022/02/07 06:07:40;;;;;;;3.05;1.52;;;1.00;99.90;;;;;;5089315;28;20036;-76
2022/02/07 06:10:14;;;;;;;6.53;2.40;;;1.00;99.90;;;;;;5058070;28;20044;-76
2022/02/07 06:12:48;;;;;;;3.75;1.23;;;1.00;99.90;;;;;;5053118;28;20044;-76
2022/02/07 06:15:17;;;;;;;2.17;1.20;;;1.00;99.90;;;;;;5057684;28;20051;-76
2022/02/07 06:17:52;;;;;;;3.40;1.10;;;1.00;99.90;;;;;;5060501;28;20039;-76
2022/02/07 06:20:26;;;;;;;4.60;0.85;;;0.90;99.90;;;;;;5071936;28;20060;-76
2022/02/07 06:22:58;;;;;;;2.75;0.98;;;0.90;99.90;;;;;;5056768;28;20098;-76
2022/02/07 06:25:25;;;;;;;7.45;2.72;;;0.90;99.90;;;;;;5063225;28;20100;-76
2022/02/07 06:27:52;;;;;;;2.00;0.70;;;0.90;99.90;;;;;;5086938;28;20039;-76
2022/02/07 06:30:28;;;;;;;2.50;1.00;;;0.90;99.90;;;;;;5057660;28;20043;-76
2022/02/07 06:32:55;;;;;;;3.47;1.83;;;0.90;99.90;;;;;;5072245;28;20048;-76
2022/02/07 06:35:22;;;;;;;2.65;1.23;;;0.90;99.90;;;;;;5072753;28;20070;-76
2022/02/07 06:37:55;;;;;;;4.82;1.90;;;0.90;99.90;;;;;;5057757;28;20058;-75
2022/02/07 06:40:27;;;;;;;6.57;2.15;;;0.90;99.90;;;;;;5089980;28;20052;-76
2022/02/07 06:42:59;;;;;;;3.80;1.50;;;0.90;99.90;;;;;;5082418;28;20044;-76
2022/02/07 06:45:26;;;;;;;4.10;1.38;;;0.90;99.90;;;;;;5079784;28;20514;-76
2022/02/07 06:47:59;;;;;;;5.55;1.65;;;0.90;99.90;;;;;;5084528;28;20450;-75
2022/02/07 06:50:25;;;;;;;4.35;1.88;;;0.90;99.90;;;;;;5078032;28;20040;-75
2022/02/07 06:52:52;;;;;;;7.63;2.50;;;0.90;99.90;;;;;;5092287;28;20569;-76
2022/02/07 06:55:25;;;;;;;6.05;1.70;;;0.90;99.90;;;;;;5062248;28;20038;-76
2022/02/07 06:57:57;;;;;;;4.97;1.90;;;0.90;99.90;;;;;;5080796;28;20055;-75
2022/02/07 07:00:25;;;;;;;4.80;1.60;;;0.90;99.90;;;;;;5080080;28;20132;-75
2022/02/07 07:02:59;;;;;;;6.80;2.40;;;0.90;99.90;;;;;;5078965;28;20502;-76
2022/02/07 07:05:32;;;;;;;5.80;2.28;;;0.90;99.90;;;;;;5076747;28;20036;-76
2022/02/07 07:08:00;;;;;;;6.95;1.65;;;0.90;99.90;;;;;;5099497;28;20054;-75
2022/02/07 07:10:32;;;;;;;6.00;2.92;;;0.90;99.90;;;;;;5074827;28;20410;-75
2022/02/07 07:13:14;;;;;;;7.47;1.80;;;0.80;99.90;;;;;;5082056;28;20047;-75
2022/02/07 07:18:40;;;;;;;6.60;1.73;;;0.80;99.90;;;;;;5042670;28;20414;-75
2022/02/07 07:21:12;;;;;;;3.97;1.85;;;0.80;99.90;;;;;;5071715;28;20047;-77
2022/02/07 07:23:45;;;;;;;4.13;1.40;;;0.80;99.90;;;;;;5058749;28;20503;-75
2022/02/07 07:26:14;;;;;;;5.53;1.38;;;0.80;99.90;;;;;;5073983;28;20044;-75
2022/02/07 07:28:41;;;;;;;4.78;1.70;;;0.80;99.90;;;;;;5058122;28;20052;-75
2022/02/07 07:31:15;;;;;;;7.63;1.60;;;0.80;99.90;;;;;;5055280;28;20044;-75
2022/02/07 07:33:52;;;;;;;7.38;1.63;;;0.80;99.90;;;;;;5057077;28;20063;-75
2022/02/07 07:36:29;;;;;;;6.57;1.73;;;0.80;99.90;;;;;;5056765;28;20094;-76
2022/02/07 07:38:56;;;;;;;5.65;1.88;;;0.90;99.90;;;;;;5056056;28;20046;-76
2022/02/07 07:41:28;;;;;;;7.57;1.70;;;0.90;99.90;;;;;;5072675;28;20028;-76
2022/02/07 07:44:09;;;;;;;9.50;3.08;;;0.90;99.90;;;;;;5088557;28;20036;-75
2022/02/07 07:46:54;;;;;;;5.32;1.95;;;0.90;99.90;;;;;;5074441;28;20040;-75
2022/02/07 07:49:58;;;;;;;3.95;1.70;;;0.90;99.90;;;;;;5072596;28;20499;-75
2022/02/07 07:53:06;;;;;;;5.07;1.60;;;1.00;99.90;;;;;;5069324;28;20041;-75
2022/02/07 08:01:44;;;;;;;5.22;1.40;;;1.00;99.90;;;;;;5089869;28;20040;-75
2022/02/07 08:04:17;;;;;;;2.95;1.52;;;1.00;99.90;;;;;;5072024;28;20048;-75
2022/02/07 08:07:01;;;;;;;6.15;1.60;;;1.00;99.90;;;;;;5068245;28;20094;-75
2022/02/07 08:12:03;;;;;;;6.68;1.52;;;1.10;99.90;;;;;;5089739;28;20048;-75
2022/02/07 08:14:38;;;;;;;4.07;1.50;;;1.10;99.90;;;;;;5092753;28;20410;-75
2022/02/07 08:17:10;;;;;;;9.32;1.85;;;1.10;99.90;;;;;;5092725;28;20062;-75
2022/02/07 08:19:45;;;;;;;4.40;1.70;;;1.00;99.90;;;;;;5092854;28;20521;-75
2022/02/07 08:22:17;;;;;;;5.07;1.60;;;1.10;99.90;;;;;;5092581;28;20044;-75
2022/02/07 08:24:55;;;;;;;6.18;1.33;;;1.10;99.90;;;;;;5092294;28;20044;-75
2022/02/07 08:27:26;;;;;;;4.75;1.23;;;1.10;99.90;;;;;;5093842;28;20124;-75
2022/02/07 08:29:58;;;;;;;6.38;1.58;;;1.10;99.90;;;;;;5092445;28;20067;-76
2022/02/07 08:32:30;;;;;;;7.35;1.70;;;1.10;99.90;;;;;;5092138;28;20426;-76
2022/02/07 08:35:03;;;;;;;5.10;1.77;;;1.10;99.90;;;;;;5093645;28;20048;-76
2022/02/07 08:37:30;;;;;;;3.50;1.48;;;1.20;99.90;;;;;;5093681;28;20582;-75
2022/02/07 08:40:03;;;;;;;6.95;1.60;;;1.20;99.90;;;;;;5075562;28;20461;-75
2022/02/07 08:42:29;;;;;;;6.20;2.50;;;1.20;99.90;;;;;;5074865;28;20040;-75
2022/02/07 08:45:01;;;;;;;7.47;1.80;;;1.30;99.90;;;;;;5092275;28;20079;-75
2022/02/07 08:47:28;;;;;;;4.88;1.40;;;1.30;99.90;;;;;;5075262;28;20036;-75
2022/02/07 08:50:00;;;;;;;7.03;1.63;;;1.40;99.90;;;;;;5092950;28;20046;-75
2022/02/07 08:52:32;;;;;;;5.97;1.63;;;1.40;99.90;;;;;;5074832;28;20090;-75
2022/02/07 08:55:00;;;;;;;6.45;1.10;;;1.40;99.90;;;;;;5075111;28;20134;-75
2022/02/07 08:57:38;;;;;;;12.20;2.17;;;1.40;99.90;;;;;;5059035;28;20058;-75
2022/02/07 09:03:16;;;;;;;7.23;1.37;;;1.40;99.90;;;;;;5092116;28;20051;-76
2022/02/07 09:10:37;;;;;;;5.03;1.17;;;1.50;99.90;;;;;;5092501;28;20040;-75
2022/02/07 09:13:04;;;;;;;3.92;2.17;;;1.50;99.90;;;;;;5093360;28;20075;-76
2022/02/07 09:18:11;;;;;;;5.18;1.40;;;1.60;99.90;;;;;;5092312;28;20044;-76
2022/02/07 09:20:45;;;;;;;2.70;1.20;;;1.50;99.90;;;;;;5058642;28;20130;-76
2022/02/07 09:23:12;;;;;;;10.02;2.03;;;1.60;99.90;;;;;;5075163;28;20499;-76
2022/02/07 09:25:44;;;;;;;6.35;1.33;;;1.50;99.90;;;;;;5093213;28;20046;-76
2022/02/07 09:28:16;;;;;;;7.35;1.45;;;1.50;99.90;;;;;;5059396;28;20406;-75
2022/02/07 09:30:49;;;;;;;4.22;1.40;;;1.50;99.90;;;;;;5059182;28;20040;-75
2022/02/07 09:33:16;;;;;;;5.88;1.30;;;1.50;99.90;;;;;;5074842;28;20131;-77
2022/02/07 09:35:51;;;;;;;7.25;1.83;;;1.60;99.90;;;;;;5075128;28;20480;-76
2022/02/07 09:38:23;;;;;;;6.07;2.38;;;1.50;99.90;;;;;;5059327;28;20044;-76
2022/02/07 09:40:53;;;;;;;2.15;1.20;;;1.50;99.90;;;;;;5092909;28;20178;-75
2022/02/07 09:43:31;;;;;;;5.47;1.05;;;1.60;99.90;;;;;;5058847;28;20421;-75
2022/02/07 09:46:06;;;;;;;3.90;2.58;;;1.60;99.90;;;;;;5075126;28;20507;-75
2022/02/07 09:48:39;;;;;;;5.30;1.10;;;1.60;99.90;;;;;;5058483;28;20075;-75
2022/02/07 09:51:12;;;;;;;3.78;1.15;;;1.60;99.90;;;;;;5075711;28;20516;-75
2022/02/07 09:53:40;;;;;;;10.15;5.03;;;1.60;99.90;;;;;;5074401;28;20135;-75
2022/02/07 09:56:09;;;;;;;5.05;1.30;;;1.70;99.90;;;;;;5074480;28;20245;-76
2022/02/07 09:58:38;;;;;;;5.25;1.27;;;1.70;99.90;;;;;;5074388;28;20076;-76
2022/02/07 10:01:09;;;;;;;9.98;1.45;;;1.60;99.90;;;;;;5092448;28;20122;-76
2022/02/07 10:03:51;;;;;;;11.13;1.83;;;1.70;99.90;;;;;;5055898;28;20135;-76
2022/02/07 10:12:23;;;;;;;2.20;1.08;;;1.70;99.90;;;;;;5077022;28;20048;-76
2022/02/07 10:46:11;;;;;;;6.03;1.45;;;1.80;99.90;;;;;;5073318;28;20139;-74
2022/02/07 10:48:54;;;;;;;5.43;1.40;;;1.80;99.90;;;;;;5074263;28;20038;-74
2022/02/07 10:51:24;;;;;;;3.80;1.48;;;1.80;99.90;;;;;;5091335;28;20593;-74
2022/02/07 10:53:58;;;;;;;6.60;1.30;;;1.70;99.90;;;;;;5072765;28;20139;-74
2022/02/07 10:56:41;;;;;;;4.80;1.27;;;1.70;99.90;;;;;;5073630;28;20078;-74
2022/02/07 10:59:17;;;;;;;6.80;1.77;;;1.70;99.90;;;;;;5057176;28;20149;-74
2022/02/07 11:02:25;;;;;;;3.50;1.02;;;1.70;99.90;;;;;;5073039;28;20118;-75
2022/02/07 11:04:48;;;;;;;6.30;1.30;;;1.70;99.90;;;;;;5072621;28;20059;-75
2022/02/07 11:07:17;;;;;;;9.73;1.83;;;1.70;99.90;;;;;;5072937;28;20040;-75
2022/02/07 11:10:20;;;;;;;6.32;1.20;;;1.70;99.90;;;;;;5056881;28;20126;-75
2022/02/07 11:13:26;;;;;;;6.40;1.20;;;1.70;99.90;;;;;;5061580;28;20507;-75
2022/02/07 11:16:13;;;;;;;4.90;1.27;;;1.70;99.90;;;;;;5071798;28;20414;-74
2022/02/07 11:21:48;;;;;;;5.72;1.58;;;1.70;99.90;;;;;;5072468;28;20075;-74
2022/02/07 11:27:38;;;;;;;6.03;1.60;;;1.80;99.90;;;;;;5040965;28;20058;-74
2022/02/07 11:30:16;;;;;;;9.93;1.70;;;1.80;99.90;;;;;;5075569;28;20044;-74
2022/02/07 11:32:53;;;;;;;6.82;1.58;;;1.80;99.90;;;;;;5073569;28;20063;-74
2022/02/07 11:35:23;;;;;;;7.38;2.05;;;1.80;99.90;;;;;;5090728;28;20040;-75
2022/02/07 11:37:52;;;;;;;6.43;1.92;;;1.80;99.90;;;;;;5072420;28;20040;-75
2022/02/07 11:40:56;;;;;;;5.63;1.40;;;1.80;99.90;;;;;;5073832;28;20039;-75
2022/02/07 11:43:31;;;;;;;5.25;2.58;;;1.80;99.90;;;;;;5052388;28;20045;-75
2022/02/07 11:46:06;;;;;;;5.53;1.65;;;1.80;99.90;;;;;;5068990;28;20132;-75
2022/02/07 11:48:33;;;;;;;7.93;2.22;;;1.80;99.90;;;;;;5077520;28;20564;-75
2022/02/07 11:51:04;;;;;;;9.07;3.72;;;1.90;99.90;;;;;;5095342;28;20048;-74
2022/02/07 11:53:49;;;;;;;7.43;2.90;;;1.80;99.90;;;;;;5092575;28;20032;-75
2022/02/07 11:56:44;;;;;;;5.93;2.05;;;1.80;99.90;;;;;;5056424;28;20107;-75
2022/02/07 12:02:14;;;;;;;6.65;2.10;;;1.80;99.90;;;;;;5074068;28;20055;-75
2022/02/07 12:04:48;;;;;;;6.35;2.10;;;1.80;99.90;;;;;;5055863;28;20071;-75
2022/02/07 12:07:16;;;;;;;2.53;1.70;;;1.80;99.90;;;;;;5074239;28;20062;-75
2022/02/07 12:09:59;;;;;;;5.60;2.90;;;1.80;99.90;;;;;;5055983;28;20139;-75
2022/02/07 12:12:41;;;;;;;6.28;2.50;;;1.80;99.90;;;;;;5072180;28;20036;-75
2022/02/07 12:15:20;;;;;;;5.28;1.70;;;1.80;99.90;;;;;;5062372;28;20075;-75
2022/02/07 12:17:52;;;;;;;;;;;1.90;99.90;;;;;;5084331;28;20058;-75
2022/02/07 12:20:25;;;;;;;5.00;1.85;;;1.90;99.90;;;;;;5101840;28;19974;-75
2022/02/07 12:23:15;;;;;;;4.68;2.33;;;1.90;99.90;;;;;;5089349;28;20060;-74
2022/02/07 12:25:56;;;;;;;3.90;1.38;;;1.90;99.90;;;;;;5071712;28;20052;-74
2022/02/07 12:34:07;;;;;;;4.82;2.15;;;1.90;99.90;;;;;;5074862;28;20043;-74
2022/02/07 12:36:39;;;;;;;6.43;2.65;;;1.90;99.90;;;;;;5075980;28;20046;-74
2022/02/07 12:39:14;;;;;;;3.95;2.38;;;1.90;99.90;;;;;;5092121;28;20044;-74
2022/02/07 12:41:43;;;;;;;5.53;2.75;;;1.90;99.90;;;;;;5074446;28;20435;-75
2022/02/07 12:44:22;;;;;;;;;;;1.90;99.90;;;;;;5093287;28;20046;-74
2022/02/07 12:46:55;;;;;;;6.10;2.17;;;2.00;99.90;;;;;;5075241;28;19920;-74
2022/02/07 12:49:37;;;;;;;5.38;1.83;;;2.00;99.90;;;;;;5075930;28;20685;-74
2022/02/07 12:52:09;;;;;;;4.32;1.83;;;2.00;99.90;;;;;;5075806;28;20058;-74
2022/02/07 12:54:37;;;;;;;8.23;2.03;;;2.00;99.90;;;;;;5074564;28;20063;-74
2022/02/07 12:57:04;;;;;;;5.57;2.40;;;2.10;99.90;;;;;;5092020;28;20043;-75
2022/02/07 12:59:32;;;;;;;4.55;2.10;;;2.10;99.90;;;;;;5092863;28;20054;-74
2022/02/07 13:01:59;;;;;;;7.63;2.38;;;2.10;99.90;;;;;;5075043;28;20501;-75
2022/02/07 13:04:32;;;;;;;7.63;2.42;;;2.10;99.90;;;;;;5074724;28;20487;-74
2022/02/07 13:07:06;;;;;;;6.43;2.30;;;2.10;99.90;;;;;;5074275;28;20150;-75
2022/02/07 13:09:50;;;;;;;6.60;1.80;;;2.20;99.90;;;;;;5075764;28;20039;-77
2022/02/07 13:12:49;;;;;;;6.93;2.72;;;2.20;99.90;;;;;;5058317;28;20048;-74
2022/02/07 13:15:22;;;;;;;8.30;1.90;;;2.20;99.90;;;;;;5074622;28;20047;-74
2022/02/07 13:18:00;;;;;;;7.45;2.15;;;2.20;99.90;;;;;;5074748;28;20139;-74
2022/02/07 13:20:33;;;;;;;10.57;2.75;;;2.20;99.90;;;;;;5074457;28;20044;-73
2022/02/07 13:23:17;;;;;;;6.38;2.60;;;2.30;99.90;;;;;;5074353;28;20414;-74
2022/02/07 13:25:46;;;;;;;8.98;2.72;;;2.30;99.90;;;;;;5074694;28;20072;-74
2022/02/07 13:28:27;;;;;;;10.15;1.92;;;2.30;99.90;;;;;;5058665;28;20050;-74
2022/02/07 13:31:00;;;;;;;5.30;2.30;;;2.30;99.90;;;;;;5076072;28;20075;-74
2022/02/07 13:33:27;;;;;;;6.47;1.90;;;2.30;99.90;;;;;;5077327;28;20044;-74
2022/02/07 13:35:59;;;;;;;6.38;2.00;;;2.30;99.90;;;;;;5094508;28;20126;-74
2022/02/07 13:38:31;;;;;;;9.60;2.03;;;2.30;99.90;;;;;;5090937;28;20126;-73
2022/02/07 13:41:01;;;;;;;5.10;1.73;;;2.30;99.90;;;;;;5074121;28;20058;-73
2022/02/07 13:43:31;;;;;;;8.00;2.53;;;2.40;99.90;;;;;;5073708;28;20048;-73
2022/02/07 13:46:05;;;;;;;3.65;2.45;;;2.50;99.90;;;;;;5071945;28;20039;-73
2022/02/07 13:48:36;;;;;;;6.72;1.90;;;2.40;99.90;;;;;;5073904;28;20048;-73
2022/02/07 13:51:08;;;;;;;8.35;1.67;;;2.50;99.90;;;;;;5073938;28;20040;-73
2022/02/07 13:53:40;;;;;;;5.60;1.80;;;2.50;99.90;;;;;;5057719;28;20063;-73
2022/02/07 13:56:07;;;;;;;10.13;2.30;;;2.50;99.90;;;;;;5073544;28;20054;-73
2022/02/07 13:58:36;;;;;;;9.88;2.15;;;2.50;99.90;;;;;;5073964;28;20040;-73
2022/02/07 14:01:09;;;;;;;5.70;2.03;;;2.70;99.90;;;;;;5073509;28;20536;-72
2022/02/07 14:03:46;;;;;;;4.55;1.52;;;2.80;99.90;;;;;;5056577;28;20044;-73
2022/02/07 14:06:14;;;;;;;5.03;2.08;;;2.80;99.90;;;;;;5091410;28;20046;-72
2022/02/07 14:08:52;;;;;;;4.35;1.65;;;2.90;99.90;;;;;;5087586;28;20131;-72
2022/02/07 14:11:26;;;;;;;6.00;2.22;;;2.90;99.90;;;;;;5095544;28;20123;-73
2022/02/07 14:14:05;;;;;;;3.03;1.50;;;2.90;99.90;;;;;;5070981;28;20522;-73
2022/02/07 14:16:37;;;;;;;6.85;2.28;;;2.90;99.90;;;;;;5069559;28;20415;-73
2022/02/07 14:19:09;;;;;;;4.97;1.88;;;3.00;99.90;;;;;;5075016;28;20040;-73
2022/02/07 14:21:35;;;;;;;5.60;2.30;;;3.00;99.90;;;;;;5088180;28;20150;-73
2022/02/07 14:24:07;;;;;;;6.38;1.95;;;3.00;99.90;;;;;;5091610;28;20048;-73
2022/02/07 14:26:40;;;;;;;7.97;1.85;;;3.00;99.90;;;;;;5082338;28;20032;-72
2022/02/07 14:29:07;;;;;;;5.18;1.67;;;3.00;99.90;;;;;;5070476;28;20172;-73
2022/02/07 14:31:39;;;;;;;8.38;1.92;;;3.00;99.90;;;;;;5073413;28;20062;-73
2022/02/07 14:34:11;;;;;;;5.97;3.05;;;2.90;99.90;;;;;;5091271;28;20036;-73
2022/02/07 14:36:43;;;;;;;5.63;2.47;;;2.90;99.90;;;;;;5089917;28;20051;-72
2022/02/07 14:39:09;;;;;;;10.55;3.55;;;2.80;99.90;;;;;;5072582;28;20123;-72
2022/02/07 14:41:45;;;;;;;13.20;5.05;;;2.70;99.90;;;;;;5072658;28;20116;-73
2022/02/07 14:44:28;;;;;;;21.23;8.35;;;2.70;99.90;;;;;;5072311;28;20058;-73
2022/02/07 14:47:06;;;;;;;24.60;11.45;;;2.70;99.90;;;;;;5073056;28;20503;-73
2022/02/07 14:49:33;;;;;;;22.63;11.43;;;2.70;99.90;;;;;;5092650;28;20032;-73
2022/02/07 14:52:04;;;;;;;13.35;7.20;;;2.70;99.90;;;;;;5081080;28;20483;-73
2022/02/07 14:54:36;;;;;;;15.48;4.95;;;2.70;99.90;;;;;;5070295;28;20040;-73
2022/02/07 14:57:09;;;;;;;12.13;5.70;;;2.60;99.90;;;;;;5090371;28;20089;-73
2022/02/07 14:59:42;;;;;;;6.68;3.00;;;2.70;99.90;;;;;;5069071;28;20126;-73
2022/02/07 15:02:20;;;;;;;8.80;5.35;;;2.60;99.90;;;;;;5072114;28;20730;-73
2022/02/07 15:04:54;;;;;;;8.88;3.17;;;2.60;99.90;;;;;;5056456;28;20059;-73
2022/02/07 15:07:23;;;;;;;8.15;2.90;;;2.50;99.90;;;;;;5088927;28;20047;-73
2022/02/07 15:09:57;;;;;;;3.78;1.90;;;2.50;99.90;;;;;;5072433;28;20060;-73
2022/02/07 15:12:24;;;;;;;11.90;5.85;;;2.50;99.90;;;;;;5072087;28;20442;-73
2022/02/07 15:14:57;;;;;;;7.32;2.42;;;2.50;99.90;;;;;;5090524;28;20055;-74
2022/02/07 15:17:30;;;;;;;12.50;5.57;;;2.50;99.90;;;;;;5090423;28;20051;-73
2022/02/07 15:20:06;;;;;;;10.07;3.72;;;2.50;99.90;;;;;;5087979;28;20047;-73
2022/02/07 15:22:40;;;;;;;11.43;4.53;;;2.50;99.90;;;;;;5073541;28;20139;-74
2022/02/07 15:25:28;;;;;;;5.75;1.73;;;2.40;99.90;;;;;;5094718;28;20059;-73
2022/02/07 15:27:56;;;;;;;5.00;1.80;;;2.40;99.90;;;;;;5094708;28;20040;-74
2022/02/07 15:30:40;;;;;;;5.55;2.10;;;2.40;99.90;;;;;;5076080;28;20048;-73
2022/02/07 15:33:13;;;;;;;5.13;1.73;;;2.40;99.90;;;;;;5076594;28;20040;-74
2022/02/07 15:35:47;;;;;;;7.65;2.17;;;2.40;99.90;;;;;;5094357;28;20043;-73
2022/02/07 15:38:16;;;;;;;5.45;1.50;;;2.40;99.90;;;;;;5094195;28;20043;-74
2022/02/07 15:40:44;;;;;;;9.02;2.15;;;2.40;99.90;;;;;;5112657;28;20036;-73
2022/02/07 15:43:20;;;;;;;8.30;1.55;;;2.40;99.90;;;;;;5111135;28;20079;-73
2022/02/07 15:45:52;;;;;;;10.80;2.50;;;2.40;99.90;;;;;;5084582;28;20043;-74
2022/02/07 15:48:24;;;;;;;3.05;2.00;;;2.30;99.90;;;;;;5092961;28;20040;-73
2022/02/07 15:50:54;;;;;;;3.47;1.60;;;2.20;99.90;;;;;;5092883;28;20062;-74
2022/02/07 15:53:28;;;;;;;7.00;1.90;;;2.20;99.90;;;;;;5091635;28;20044;-74
2022/02/07 15:55:55;;;;;;;9.07;1.92;;;2.10;99.90;;;;;;5092819;28;20048;-74
2022/02/07 15:58:27;;;;;;;4.80;1.50;;;2.10;99.90;;;;;;5076380;28;20482;-74
2022/02/07 16:00:56;;;;;;;6.43;1.60;;;2.10;99.90;;;;;;5101762;28;20509;-73
2022/02/07 16:03:27;;;;;;;5.13;1.80;;;2.10;99.90;;;;;;5084473;28;20046;-74
2022/02/07 16:05:54;;;;;;;7.53;1.60;;;2.20;99.90;;;;;;5098538;28;20115;-73
2022/02/07 16:08:21;;;;;;;6.32;2.25;;;2.10;99.90;;;;;;5072557;28;20040;-74
2022/02/07 16:10:54;;;;;;;5.73;1.90;;;2.20;99.90;;;;;;5081157;28;20719;-73
2022/02/07 16:13:33;;;;;;;3.95;1.38;;;2.20;99.90;;;;;;5055008;28;20063;-74
2022/02/07 16:16:09;;;;;;;4.53;1.75;;;2.20;99.90;;;;;;5039882;28;20046;-73
2022/02/07 16:18:36;;;;;;;3.97;1.90;;;2.20;99.90;;;;;;5072242;28;20041;-74